Time;durP1;ratioP1;P1;durP2;ratioP2;P2;SDS_P1;SDS_P2;PMS_P1;PMS_P2;Temp;Humidity;BMP_temperature;BMP_pressure;BME280_temperature;BME280_humidity;BME280_pressure;Samples;Min_cycle;Max_cycle;Signal;HPM_P1;HPM_P2
2023/12/22 00:00:14;;;;;;;9.90;1.20;;;6.80;67.30;;;;;;5114532;27;20267;-71
2023/12/22 00:02:41;;;;;;;11.57;2.05;;;6.80;68.10;;;;;;5110212;27;20044;-70
2023/12/22 00:05:08;;;;;;;14.15;1.80;;;6.80;68.50;;;;;;5115789;27;20234;-71
2023/12/22 00:07:36;;;;;;;9.73;1.38;;;6.80;69.00;;;;;;5113442;27;20048;-73
2023/12/22 00:10:03;;;;;;;13.93;1.93;;;6.70;69.30;;;;;;5110539;27;20414;-70
2023/12/22 00:12:30;;;;;;;12.95;2.75;;;6.70;69.40;;;;;;5112555;27;20944;-72
2023/12/22 00:14:56;;;;;;;13.32;2.65;;;6.70;69.40;;;;;;5111492;27;20339;-72
2023/12/22 00:17:23;;;;;;;7.40;1.13;;;6.70;69.70;;;;;;5114936;27;20127;-71
2023/12/22 00:19:50;;;;;;;12.13;1.98;;;6.70;69.70;;;;;;5109727;27;20573;-71
2023/12/22 00:22:17;;;;;;;14.60;3.33;;;6.70;69.50;;;;;;5111846;27;20075;-70
2023/12/22 00:24:45;;;;;;;15.18;1.88;;;6.60;69.50;;;;;;5097024;27;20289;-71
2023/12/22 00:27:12;;;;;;;11.63;1.77;;;6.70;69.60;;;;;;5096376;27;20512;-71
2023/12/22 00:29:39;;;;;;;10.73;1.40;;;6.60;69.70;;;;;;5108290;27;20053;-71
2023/12/22 00:32:09;;;;;;;9.43;1.65;;;6.70;69.80;;;;;;5112743;27;20047;-71
2023/12/22 00:34:36;;;;;;;11.07;1.40;;;6.60;69.70;;;;;;5113381;27;20601;-71
2023/12/22 00:37:04;;;;;;;10.85;1.90;;;6.60;69.40;;;;;;5095965;27;20257;-70
2023/12/22 00:39:32;;;;;;;17.52;3.70;;;6.60;69.80;;;;;;5112917;27;20062;-71
2023/12/22 00:42:01;;;;;;;11.95;2.55;;;6.60;69.60;;;;;;5115029;27;20056;-72
2023/12/22 00:44:29;;;;;;;13.05;2.50;;;6.60;68.50;;;;;;5114628;27;21227;-72
2023/12/22 00:46:56;;;;;;;12.37;1.63;;;6.60;67.90;;;;;;5109951;27;20051;-71
2023/12/22 00:49:23;;;;;;;9.98;1.50;;;6.50;67.60;;;;;;5114758;27;20285;-71
2023/12/22 00:51:50;;;;;;;10.95;1.95;;;6.50;67.30;;;;;;5112291;27;20056;-71
2023/12/22 00:54:17;;;;;;;9.35;1.67;;;6.40;66.60;;;;;;5095659;27;20069;-72
2023/12/22 00:56:43;;;;;;;8.25;1.33;;;6.40;66.50;;;;;;5111731;27;20048;-71
2023/12/22 00:59:12;;;;;;;12.03;2.10;;;6.40;66.90;;;;;;5112971;27;20573;-70
2023/12/22 01:01:39;;;;;;;11.95;2.03;;;6.40;66.90;;;;;;5095625;27;20269;-71
2023/12/22 01:04:06;;;;;;;12.65;2.35;;;6.40;67.30;;;;;;5105672;27;20173;-72
2023/12/22 01:06:33;;;;;;;11.15;2.08;;;6.40;67.10;;;;;;5116249;27;20048;-70
2023/12/22 01:08:59;;;;;;;12.02;1.88;;;6.40;67.70;;;;;;5112539;27;20048;-71
2023/12/22 01:11:26;;;;;;;14.07;3.03;;;6.40;67.70;;;;;;5109039;27;20131;-71
2023/12/22 01:13:53;;;;;;;14.18;2.70;;;6.40;66.90;;;;;;5112737;27;20293;-71
2023/12/22 01:16:22;;;;;;;16.48;2.38;;;6.40;67.60;;;;;;5112236;27;20059;-71
2023/12/22 01:18:50;;;;;;;10.43;1.88;;;6.40;67.80;;;;;;5095383;27;20087;-71
2023/12/22 01:21:17;;;;;;;16.27;2.05;;;6.50;68.30;;;;;;5091877;27;20059;-70
2023/12/22 01:23:44;;;;;;;8.23;1.47;;;6.50;68.60;;;;;;5114188;27;20048;-72
2023/12/22 01:26:11;;;;;;;9.55;1.50;;;6.50;68.30;;;;;;5113535;27;20315;-72
2023/12/22 01:28:38;;;;;;;9.43;1.00;;;6.50;68.10;;;;;;5113659;27;21527;-72
2023/12/22 01:31:05;;;;;;;11.90;2.20;;;6.50;68.90;;;;;;5113211;27;20086;-71
2023/12/22 01:33:33;;;;;;;10.27;1.83;;;6.50;67.60;;;;;;5113566;27;20044;-71
2023/12/22 01:36:00;;;;;;;11.13;1.50;;;6.50;67.20;;;;;;5110337;27;20152;-70
2023/12/22 01:38:27;;;;;;;9.60;0.95;;;6.50;67.60;;;;;;5108003;27;20258;-72
2023/12/22 01:40:54;;;;;;;11.82;1.80;;;6.50;67.70;;;;;;5097694;27;20044;-71
2023/12/22 01:43:21;;;;;;;10.18;1.83;;;6.50;67.00;;;;;;5113343;27;20052;-70
2023/12/22 01:45:48;;;;;;;11.38;2.53;;;6.50;66.30;;;;;;5112277;27;20056;-71
2023/12/22 01:48:16;;;;;;;9.57;1.47;;;6.50;65.90;;;;;;5111036;27;20134;-72
2023/12/22 01:50:45;;;;;;;7.53;1.25;;;6.50;65.60;;;;;;5111863;27;20246;-72
2023/12/22 01:53:12;;;;;;;10.15;1.73;;;6.50;65.30;;;;;;5096697;27;20198;-72
2023/12/22 01:55:39;;;;;;;13.27;2.55;;;6.50;65.30;;;;;;5106407;27;20694;-71
2023/12/22 01:58:06;;;;;;;9.30;1.48;;;6.50;64.90;;;;;;5113130;27;20039;-71
2023/12/22 02:00:33;;;;;;;10.40;1.83;;;6.50;65.20;;;;;;5114393;27;20052;-70
2023/12/22 02:03:00;;;;;;;10.60;1.65;;;6.50;65.50;;;;;;5115481;27;21349;-71
2023/12/22 02:05:29;;;;;;;9.73;1.15;;;6.50;65.80;;;;;;5113940;27;20660;-70
2023/12/22 02:07:57;;;;;;;11.55;1.92;;;6.50;66.10;;;;;;5114161;27;20780;-71
2023/12/22 02:10:24;;;;;;;6.78;1.10;;;6.50;65.90;;;;;;5115824;27;20074;-71
2023/12/22 02:12:51;;;;;;;13.50;1.70;;;6.50;66.40;;;;;;5108385;27;20048;-70
2023/12/22 02:15:19;;;;;;;8.88;1.02;;;6.50;66.90;;;;;;5114693;27;20353;-71
2023/12/22 02:17:52;;;;;;;10.02;1.83;;;6.50;67.20;;;;;;5113478;27;20138;-70
2023/12/22 02:20:20;;;;;;;9.25;1.42;;;6.50;67.40;;;;;;5113432;27;20110;-72
2023/12/22 02:22:52;;;;;;;13.40;1.75;;;6.50;67.90;;;;;;5110389;27;20047;-70
2023/12/22 02:25:19;;;;;;;7.93;1.20;;;6.50;68.50;;;;;;5115909;27;20517;-70
2023/12/22 02:27:50;;;;;;;8.63;1.50;;;6.50;68.90;;;;;;5102180;27;20346;-71
2023/12/22 02:30:28;;;;;;;9.77;1.60;;;6.50;69.20;;;;;;5103932;27;20073;-70
2023/12/22 02:32:59;;;;;;;7.72;1.75;;;6.50;70.10;;;;;;5103936;27;20126;-71
2023/12/22 02:35:28;;;;;;;9.60;1.58;;;6.50;71.20;;;;;;5104848;27;20103;-71
2023/12/22 02:37:58;;;;;;;17.93;2.87;;;6.50;71.90;;;;;;5104187;27;20570;-71
2023/12/22 02:40:26;;;;;;;12.75;1.70;;;6.50;72.20;;;;;;5100965;27;20261;-70
2023/12/22 02:42:54;;;;;;;15.20;2.80;;;6.50;72.90;;;;;;5087151;28;20113;-71
2023/12/22 02:45:21;;;;;;;9.50;1.70;;;6.50;71.90;;;;;;5105668;27;20052;-71
2023/12/22 02:47:48;;;;;;;8.85;1.00;;;6.50;71.10;;;;;;5103755;27;20048;-71
2023/12/22 02:50:17;;;;;;;6.30;1.20;;;6.50;71.20;;;;;;5109976;27;20648;-71
2023/12/22 02:52:44;;;;;;;12.23;2.00;;;6.50;70.70;;;;;;5102101;27;20290;-69
2023/12/22 02:55:12;;;;;;;10.15;1.60;;;6.50;70.30;;;;;;5105084;27;20040;-71
2023/12/22 02:57:39;;;;;;;7.03;1.08;;;6.50;70.10;;;;;;5086322;27;20181;-71
2023/12/22 03:00:07;;;;;;;7.47;0.93;;;6.60;69.90;;;;;;5103684;27;20120;-71
2023/12/22 03:02:34;;;;;;;6.93;0.83;;;6.60;70.50;;;;;;5105893;27;20056;-71
2023/12/22 03:05:01;;;;;;;8.50;1.10;;;6.60;69.90;;;;;;5103678;27;21510;-71
2023/12/22 03:07:28;;;;;;;7.68;1.10;;;6.60;69.20;;;;;;5100641;27;20051;-70
2023/12/22 03:09:55;;;;;;;9.35;1.33;;;6.60;69.60;;;;;;5103445;27;20688;-70
2023/12/22 03:12:23;;;;;;;8.70;0.95;;;6.60;69.90;;;;;;5104512;28;20056;-71
2023/12/22 03:14:50;;;;;;;4.10;0.40;;;6.60;70.60;;;;;;5108621;27;20051;-71
2023/12/22 03:17:17;;;;;;;7.93;1.42;;;6.60;71.20;;;;;;5124829;27;20256;-71
2023/12/22 03:19:44;;;;;;;10.35;1.40;;;6.50;71.60;;;;;;5112934;27;20139;-71
2023/12/22 03:22:11;;;;;;;6.18;1.20;;;6.50;71.90;;;;;;5121094;27;20063;-71
2023/12/22 03:24:38;;;;;;;7.55;0.68;;;6.50;72.00;;;;;;5097154;27;20052;-71
2023/12/22 03:27:05;;;;;;;6.87;1.43;;;6.50;72.40;;;;;;5105352;27;20512;-70
2023/12/22 03:29:33;;;;;;;6.28;0.88;;;6.40;72.90;;;;;;5106825;27;20266;-71
2023/12/22 03:32:00;;;;;;;5.40;0.50;;;6.40;73.30;;;;;;5124592;27;20532;-71
2023/12/22 03:34:27;;;;;;;7.03;0.90;;;6.30;73.50;;;;;;5114360;27;20586;-71
2023/12/22 03:36:54;;;;;;;6.35;0.90;;;6.30;73.90;;;;;;5123938;27;20058;-71
2023/12/22 03:39:21;;;;;;;6.10;0.97;;;6.30;74.50;;;;;;5116290;27;20054;-71
2023/12/22 03:41:48;;;;;;;6.82;1.20;;;6.30;74.90;;;;;;5107411;27;20266;-72
2023/12/22 03:44:15;;;;;;;4.63;0.60;;;6.20;75.40;;;;;;5125356;27;20052;-70
2023/12/22 03:46:43;;;;;;;7.50;0.98;;;6.20;75.50;;;;;;5124367;27;20047;-72
2023/12/22 03:49:10;;;;;;;7.68;0.82;;;6.10;75.90;;;;;;5099907;27;20040;-72
2023/12/22 03:51:38;;;;;;;6.60;0.63;;;6.10;76.00;;;;;;5101415;27;20065;-72
2023/12/22 03:54:05;;;;;;;11.95;1.00;;;6.10;76.00;;;;;;5102944;27;20274;-72
2023/12/22 03:56:32;;;;;;;6.00;0.90;;;6.10;75.80;;;;;;5101333;27;20056;-71
2023/12/22 03:58:58;;;;;;;7.40;0.90;;;6.00;75.60;;;;;;5103869;27;20048;-71
2023/12/22 04:01:25;;;;;;;7.72;0.95;;;6.00;75.20;;;;;;5119110;27;20065;-71
2023/12/22 04:03:53;;;;;;;12.05;1.20;;;6.00;74.90;;;;;;5100318;27;20101;-70
2023/12/22 04:06:20;;;;;;;9.82;1.23;;;5.90;74.80;;;;;;5104389;27;20104;-70
2023/12/22 04:08:47;;;;;;;8.75;1.85;;;6.00;74.00;;;;;;5098590;27;21251;-72
2023/12/22 04:11:14;;;;;;;9.50;1.33;;;6.00;73.30;;;;;;5105061;27;20048;-70
2023/12/22 04:13:41;;;;;;;10.40;1.83;;;6.00;72.80;;;;;;5105267;27;20070;-71
2023/12/22 04:16:08;;;;;;;9.52;1.80;;;6.00;72.50;;;;;;5100287;27;20761;-70
2023/12/22 04:18:35;;;;;;;10.98;1.88;;;6.00;72.10;;;;;;5101972;27;20074;-71
2023/12/22 04:21:04;;;;;;;9.38;1.75;;;6.00;71.80;;;;;;5106551;27;20048;-69
2023/12/22 04:23:31;;;;;;;7.72;1.77;;;6.10;71.50;;;;;;5102783;27;20055;-71
2023/12/22 04:25:58;;;;;;;8.20;0.80;;;6.10;71.40;;;;;;5100764;27;20072;-70
2023/12/22 04:28:25;;;;;;;9.10;1.40;;;6.10;70.90;;;;;;5104853;27;20844;-71
2023/12/22 04:30:52;;;;;;;9.75;1.48;;;6.20;70.90;;;;;;5109417;27;20163;-71
2023/12/22 04:33:19;;;;;;;11.25;1.20;;;6.20;71.10;;;;;;5102474;27;20051;-71
2023/12/22 04:35:46;;;;;;;11.55;1.67;;;6.20;71.00;;;;;;5082542;27;20055;-71
2023/12/22 04:38:14;;;;;;;6.43;0.90;;;6.20;70.70;;;;;;5108538;27;20058;-72
2023/12/22 04:40:41;;;;;;;10.00;1.27;;;6.30;70.80;;;;;;5107164;27;20298;-70
2023/12/22 04:43:08;;;;;;;8.50;1.02;;;6.30;70.10;;;;;;5104123;27;20056;-72
2023/12/22 04:45:35;;;;;;;8.10;1.50;;;6.30;70.40;;;;;;5093283;27;20883;-72
2023/12/22 04:48:02;;;;;;;12.10;1.30;;;6.40;70.00;;;;;;5110749;27;20048;-73
2023/12/22 04:50:29;;;;;;;8.70;1.50;;;6.30;70.20;;;;;;5110173;27;20052;-73
2023/12/22 04:52:56;;;;;;;11.38;2.10;;;6.40;70.00;;;;;;5090942;27;20243;-71
2023/12/22 04:55:24;;;;;;;9.65;1.33;;;6.40;69.50;;;;;;5106210;27;20059;-71
2023/12/22 04:57:51;;;;;;;10.25;2.03;;;6.40;70.00;;;;;;5103944;27;20044;-72
2023/12/22 05:00:18;;;;;;;13.20;2.20;;;6.50;69.60;;;;;;5101901;27;20059;-71
2023/12/22 05:02:45;;;;;;;11.57;2.07;;;6.50;69.60;;;;;;5102442;27;20048;-72
2023/12/22 05:05:12;;;;;;;12.27;2.40;;;6.50;69.30;;;;;;5103093;27;20251;-71
2023/12/22 05:07:40;;;;;;;10.07;1.52;;;6.60;69.10;;;;;;5119491;27;20553;-72
2023/12/22 05:10:08;;;;;;;6.25;1.50;;;6.60;68.90;;;;;;5109763;27;20052;-71
2023/12/22 05:12:36;;;;;;;11.23;1.83;;;6.60;69.20;;;;;;5124887;27;20058;-71
2023/12/22 05:15:04;;;;;;;12.70;2.30;;;6.60;69.10;;;;;;5105063;27;20067;-71
2023/12/22 05:17:31;;;;;;;14.10;2.40;;;6.60;68.70;;;;;;5101845;27;20865;-73
2023/12/22 05:19:59;;;;;;;10.45;1.77;;;6.60;68.60;;;;;;5106614;27;20051;-72
2023/12/22 05:22:29;;;;;;;12.00;1.35;;;6.60;68.70;;;;;;5122027;27;20054;-72
2023/12/22 05:24:57;;;;;;;10.40;1.75;;;6.60;69.00;;;;;;5098832;27;20055;-72
2023/12/22 05:27:24;;;;;;;10.63;1.70;;;6.70;68.50;;;;;;5089809;27;20064;-71
2023/12/22 05:29:52;;;;;;;7.40;1.48;;;6.70;68.90;;;;;;5112358;27;20289;-71
2023/12/22 05:32:19;;;;;;;7.82;1.42;;;6.70;69.10;;;;;;5099408;27;20058;-71
2023/12/22 05:34:46;;;;;;;14.50;2.83;;;6.70;69.20;;;;;;5102091;27;20763;-72
2023/12/22 05:37:13;;;;;;;9.85;1.50;;;6.70;69.10;;;;;;5100735;27;20052;-71
2023/12/22 05:39:40;;;;;;;10.33;1.97;;;6.80;69.20;;;;;;5094241;27;20698;-71
2023/12/22 05:42:07;;;;;;;11.27;2.03;;;6.80;69.50;;;;;;5104955;27;20251;-71
2023/12/22 05:44:34;;;;;;;9.38;1.10;;;6.80;69.40;;;;;;5099650;27;20909;-72
2023/12/22 05:47:02;;;;;;;7.63;0.93;;;6.90;69.50;;;;;;5088148;27;20040;-72
2023/12/22 05:49:30;;;;;;;8.25;1.20;;;6.90;69.40;;;;;;5088487;27;20066;-71
2023/12/22 05:51:57;;;;;;;6.93;1.03;;;6.90;69.80;;;;;;5111835;27;20055;-72
2023/12/22 05:54:25;;;;;;;10.25;2.38;;;6.90;70.00;;;;;;5113680;27;20390;-72
2023/12/22 05:56:52;;;;;;;10.20;1.80;;;6.90;70.00;;;;;;5105207;27;20048;-72
2023/12/22 05:59:19;;;;;;;8.93;1.90;;;6.90;69.90;;;;;;5105903;27;20146;-71
2023/12/22 06:01:45;;;;;;;6.50;0.80;;;6.90;69.90;;;;;;5097967;27;20061;-72
2023/12/22 06:04:14;;;;;;;16.40;2.00;;;6.90;69.80;;;;;;5097352;27;20055;-72
2023/12/22 06:06:41;;;;;;;6.97;0.88;;;7.00;69.50;;;;;;5107963;27;20277;-71
2023/12/22 06:09:08;;;;;;;12.57;1.63;;;6.90;69.60;;;;;;5106260;28;20044;-71
2023/12/22 06:11:35;;;;;;;12.25;1.48;;;7.00;69.70;;;;;;5096742;28;20052;-72
2023/12/22 06:14:02;;;;;;;9.45;1.13;;;7.00;70.10;;;;;;5086446;28;20170;-72
2023/12/22 06:16:29;;;;;;;9.13;0.70;;;7.00;69.80;;;;;;5102506;28;20106;-72
2023/12/22 06:18:56;;;;;;;4.88;0.47;;;7.00;70.30;;;;;;5107127;28;20277;-72
2023/12/22 06:21:24;;;;;;;13.18;1.52;;;7.00;69.80;;;;;;5093454;27;20056;-71
2023/12/22 06:23:51;;;;;;;8.20;1.17;;;7.00;69.40;;;;;;5105498;28;20162;-71
2023/12/22 06:26:18;;;;;;;10.38;1.20;;;7.00;69.10;;;;;;5105568;28;20553;-72
2023/12/22 06:28:45;;;;;;;5.83;0.80;;;7.00;68.50;;;;;;5105619;28;20135;-72
2023/12/22 06:31:19;;;;;;;7.28;1.05;;;7.00;68.60;;;;;;5094857;28;20579;-72
2023/12/22 06:33:46;;;;;;;10.65;1.48;;;7.00;68.40;;;;;;5087115;28;20872;-72
2023/12/22 06:36:19;;;;;;;9.55;1.20;;;7.00;68.00;;;;;;5085114;28;20552;-72
2023/12/22 06:38:48;;;;;;;5.45;0.88;;;7.00;68.30;;;;;;5085212;28;20060;-72
2023/12/22 06:41:22;;;;;;;6.80;0.73;;;7.00;68.40;;;;;;5100650;27;20048;-71
2023/12/22 06:43:49;;;;;;;8.43;1.48;;;7.00;68.40;;;;;;5085276;28;20331;-71
2023/12/22 06:46:17;;;;;;;20.35;1.90;;;7.00;68.50;;;;;;5101619;28;20527;-72
2023/12/22 06:48:44;;;;;;;11.80;1.10;;;7.00;68.70;;;;;;5115272;27;20072;-71
2023/12/22 06:51:18;;;;;;;9.38;1.23;;;7.00;68.70;;;;;;5086974;28;20056;-71
2023/12/22 06:53:45;;;;;;;9.33;1.53;;;7.00;69.10;;;;;;5122474;27;20078;-72
2023/12/22 06:56:18;;;;;;;11.93;1.50;;;7.00;69.30;;;;;;5105593;28;20757;-72
2023/12/22 06:58:46;;;;;;;13.32;1.85;;;7.00;69.50;;;;;;5118989;27;20057;-72
2023/12/22 07:01:20;;;;;;;5.07;0.77;;;7.00;68.80;;;;;;5115936;27;20079;-72
2023/12/22 07:03:47;;;;;;;9.02;0.80;;;7.00;69.10;;;;;;5087905;28;20532;-71
2023/12/22 07:06:14;;;;;;;8.07;0.83;;;7.00;68.90;;;;;;5102832;27;20192;-72
2023/12/22 07:08:42;;;;;;;11.93;0.98;;;7.10;69.20;;;;;;5104311;28;20271;-72
2023/12/22 07:11:09;;;;;;;8.20;1.30;;;7.10;69.10;;;;;;5102139;28;20059;-72
2023/12/22 07:13:38;;;;;;;5.65;0.63;;;7.10;69.10;;;;;;5104460;28;20451;-72
2023/12/22 07:16:06;;;;;;;7.90;1.00;;;7.10;69.10;;;;;;5101006;27;20048;-71
2023/12/22 07:18:33;;;;;;;8.40;1.27;;;7.10;69.30;;;;;;5104766;27;20063;-72
2023/12/22 07:21:01;;;;;;;7.47;1.00;;;7.10;69.30;;;;;;5104523;28;20259;-71
2023/12/22 07:23:27;;;;;;;7.35;1.33;;;7.10;69.50;;;;;;5101209;27;20643;-72
2023/12/22 07:25:54;;;;;;;9.85;1.08;;;7.10;69.90;;;;;;5103163;28;20389;-71
2023/12/22 07:28:21;;;;;;;10.77;1.20;;;7.10;70.20;;;;;;5103278;28;20066;-72
2023/12/22 07:30:49;;;;;;;8.00;1.40;;;7.10;70.30;;;;;;5093189;28;20057;-72
2023/12/22 07:33:16;;;;;;;7.55;0.60;;;7.10;70.40;;;;;;5098488;27;20273;-72
2023/12/22 07:35:43;;;;;;;9.75;1.67;;;7.10;70.60;;;;;;5106048;27;20052;-71
2023/12/22 07:38:10;;;;;;;11.00;0.90;;;7.20;70.40;;;;;;5104179;28;20044;-72
2023/12/22 07:40:37;;;;;;;10.93;2.15;;;7.20;70.60;;;;;;5104372;27;20583;-72
2023/12/22 07:43:04;;;;;;;8.57;1.33;;;7.20;70.50;;;;;;5101585;28;20044;-72
2023/12/22 07:45:31;;;;;;;11.52;1.27;;;7.20;70.70;;;;;;5105008;27;20306;-71
2023/12/22 07:48:01;;;;;;;10.23;1.27;;;7.20;70.80;;;;;;5102092;27;20440;-71
2023/12/22 07:50:28;;;;;;;9.38;1.10;;;7.20;71.10;;;;;;5096992;27;20505;-71
2023/12/22 07:52:55;;;;;;;10.98;1.77;;;7.20;71.70;;;;;;5100987;28;20085;-73
2023/12/22 07:55:22;;;;;;;7.73;1.27;;;7.20;72.40;;;;;;5097598;28;20059;-71
2023/12/22 07:57:49;;;;;;;5.18;0.95;;;7.20;73.20;;;;;;5092293;28;20362;-73
2023/12/22 08:00:16;;;;;;;15.43;1.80;;;7.20;73.70;;;;;;5096878;27;20044;-72
2023/12/22 08:02:43;;;;;;;9.68;1.52;;;7.20;74.00;;;;;;5097927;28;20040;-71
2023/12/22 08:05:12;;;;;;;11.18;1.52;;;7.20;74.60;;;;;;5095164;28;20059;-72
2023/12/22 08:07:39;;;;;;;8.70;1.80;;;7.20;74.70;;;;;;5102445;28;20048;-72
2023/12/22 08:10:06;;;;;;;14.90;3.03;;;7.20;74.90;;;;;;5103234;27;20288;-71
2023/12/22 08:12:33;;;;;;;6.57;0.93;;;7.20;75.40;;;;;;5104541;28;20135;-72
2023/12/22 08:15:00;;;;;;;10.18;1.40;;;7.20;75.50;;;;;;5083488;28;20049;-72
2023/12/22 08:17:28;;;;;;;9.02;0.70;;;7.20;75.60;;;;;;5092124;27;20048;-72
2023/12/22 08:19:56;;;;;;;10.30;1.90;;;7.20;75.80;;;;;;5105192;27;20058;-71
2023/12/22 08:22:24;;;;;;;10.65;1.77;;;7.20;76.00;;;;;;5105007;27;20251;-72
2023/12/22 08:24:51;;;;;;;10.90;1.55;;;7.20;76.10;;;;;;5103956;27;20558;-74
2023/12/22 08:27:18;;;;;;;6.18;1.13;;;7.20;76.20;;;;;;5089544;27;20586;-72
2023/12/22 08:29:45;;;;;;;7.75;1.05;;;7.20;76.50;;;;;;5099901;28;20048;-73
2023/12/22 08:32:12;;;;;;;10.53;1.50;;;7.20;76.90;;;;;;5103214;28;20044;-73
2023/12/22 08:34:39;;;;;;;7.00;1.50;;;7.20;77.50;;;;;;5100256;28;20282;-75
2023/12/22 08:37:06;;;;;;;8.52;0.90;;;7.20;77.90;;;;;;5101435;28;20083;-74
2023/12/22 08:39:34;;;;;;;12.27;1.38;;;7.10;77.80;;;;;;5103054;27;20067;-72
2023/12/22 08:42:01;;;;;;;9.20;1.77;;;7.00;77.70;;;;;;5101739;28;20048;-73
2023/12/22 08:44:28;;;;;;;5.77;0.90;;;7.00;77.00;;;;;;5100689;27;20056;-72
2023/12/22 08:46:55;;;;;;;5.88;0.63;;;7.00;76.80;;;;;;5123347;27;20277;-72
2023/12/22 08:49:22;;;;;;;6.05;0.80;;;7.00;77.00;;;;;;5120177;27;20047;-75
2023/12/22 08:51:49;;;;;;;13.77;1.02;;;7.00;76.90;;;;;;5087301;28;20051;-72
2023/12/22 08:54:16;;;;;;;5.75;0.40;;;7.00;76.20;;;;;;5096743;28;20059;-74
2023/12/22 08:56:44;;;;;;;3.47;0.50;;;7.00;76.20;;;;;;5105083;27;20091;-72
2023/12/22 08:59:12;;;;;;;6.30;0.50;;;7.00;75.90;;;;;;5103905;28;20723;-74
2023/12/22 09:01:40;;;;;;;3.97;0.40;;;7.00;75.20;;;;;;5099949;28;20626;-72
2023/12/22 09:04:07;;;;;;;2.70;0.20;;;7.00;75.10;;;;;;5098208;27;20554;-73
2023/12/22 09:06:34;;;;;;;4.03;0.40;;;7.00;75.20;;;;;;5103171;28;20152;-73
2023/12/22 09:09:01;;;;;;;3.97;0.30;;;7.00;75.20;;;;;;5103004;28;20059;-75
2023/12/22 09:11:28;;;;;;;4.82;0.60;;;7.00;75.00;;;;;;5080164;28;20899;-73
2023/12/22 09:13:56;;;;;;;3.88;0.20;;;7.00;75.00;;;;;;5105990;28;20048;-73
2023/12/22 09:16:24;;;;;;;3.85;0.50;;;7.00;75.00;;;;;;5105064;28;20105;-72
2023/12/22 09:18:52;;;;;;;4.47;0.50;;;7.00;74.90;;;;;;5104281;28;20048;-74
2023/12/22 09:21:19;;;;;;;3.57;0.30;;;7.00;74.30;;;;;;5100625;27;20756;-72
2023/12/22 09:23:46;;;;;;;4.03;0.45;;;7.10;74.20;;;;;;5106295;28;20752;-73
2023/12/22 09:26:13;;;;;;;3.28;0.28;;;7.10;74.00;;;;;;5105910;28;20071;-72
2023/12/22 09:28:40;;;;;;;2.50;0.30;;;7.00;74.20;;;;;;5105390;28;20052;-73
2023/12/22 09:31:09;;;;;;;3.25;0.40;;;7.00;74.00;;;;;;5103551;27;20060;-73
2023/12/22 09:33:37;;;;;;;3.27;0.27;;;7.00;74.00;;;;;;5106639;28;20055;-72
2023/12/22 09:36:04;;;;;;;3.20;0.30;;;7.10;73.80;;;;;;5105165;28;20282;-74
2023/12/22 09:38:31;;;;;;;3.90;0.50;;;7.10;73.60;;;;;;5109488;27;20941;-72
2023/12/22 09:40:59;;;;;;;5.70;0.50;;;7.10;73.80;;;;;;5116480;27;20089;-73
2023/12/22 09:43:26;;;;;;;2.55;0.50;;;7.00;73.70;;;;;;5105915;28;20054;-71
2023/12/22 09:45:53;;;;;;;2.77;0.40;;;7.00;74.10;;;;;;5102347;27;20056;-72
2023/12/22 09:48:27;;;;;;;3.55;0.30;;;7.10;74.20;;;;;;5088811;28;20520;-72
2023/12/22 09:50:54;;;;;;;4.03;0.32;;;7.00;74.50;;;;;;5102576;28;20134;-73
2023/12/22 09:53:22;;;;;;;5.97;0.47;;;7.10;74.60;;;;;;5107722;27;21040;-72
2023/12/22 09:55:50;;;;;;;6.93;0.77;;;7.10;74.90;;;;;;5100867;27;20910;-71
2023/12/22 09:58:17;;;;;;;6.00;0.90;;;7.10;75.00;;;;;;5105096;28;20054;-71
2023/12/22 10:00:45;;;;;;;5.30;0.60;;;7.10;75.50;;;;;;5100294;28;20266;-71
2023/12/22 10:03:13;;;;;;;7.32;1.10;;;7.10;75.50;;;;;;5087393;28;20060;-74
2023/12/22 10:05:43;;;;;;;3.28;0.52;;;7.20;75.80;;;;;;5089615;28;20052;-73
2023/12/22 10:08:11;;;;;;;9.30;0.80;;;7.20;76.20;;;;;;5106781;27;20055;-71
2023/12/22 10:10:40;;;;;;;6.93;1.07;;;7.20;76.50;;;;;;5105010;28;20056;-72
2023/12/22 10:13:09;;;;;;;5.07;0.90;;;7.20;76.90;;;;;;5101940;27;21248;-73
2023/12/22 10:15:40;;;;;;;7.60;0.85;;;7.20;77.20;;;;;;5105123;27;20063;-71
2023/12/22 10:18:07;;;;;;;4.43;0.82;;;7.20;77.40;;;;;;5103629;28;20117;-73
2023/12/22 10:20:35;;;;;;;3.20;0.40;;;7.20;78.00;;;;;;5102187;28;20048;-72
2023/12/22 10:23:04;;;;;;;7.87;0.60;;;7.20;78.60;;;;;;5112604;27;20154;-72
2023/12/22 10:25:32;;;;;;;5.82;0.80;;;7.20;78.70;;;;;;5103241;28;20442;-71
2023/12/22 10:27:59;;;;;;;4.50;0.85;;;7.20;79.10;;;;;;5103828;28;20050;-73
2023/12/22 10:30:28;;;;;;;9.30;1.30;;;7.20;79.40;;;;;;5104349;28;20502;-71
2023/12/22 10:32:55;;;;;;;6.63;1.35;;;7.10;80.10;;;;;;5103274;27;20060;-71
2023/12/22 10:35:22;;;;;;;9.40;1.10;;;7.10;80.10;;;;;;5108160;27;20052;-71
2023/12/22 10:37:52;;;;;;;3.95;0.45;;;7.10;80.20;;;;;;5105336;28;20340;-70
2023/12/22 10:40:21;;;;;;;8.23;0.88;;;7.10;80.70;;;;;;5102700;27;20180;-72
2023/12/22 10:42:49;;;;;;;7.07;0.82;;;7.00;80.70;;;;;;5106813;27;20044;-70
2023/12/22 10:45:17;;;;;;;6.97;1.10;;;7.00;81.10;;;;;;5107466;27;20051;-70
2023/12/22 10:47:44;;;;;;;4.73;0.63;;;7.00;81.20;;;;;;5105302;27;20048;-70
2023/12/22 10:50:13;;;;;;;8.00;1.02;;;7.00;81.50;;;;;;5100435;27;20278;-69
2023/12/22 10:52:40;;;;;;;7.50;1.00;;;7.00;81.90;;;;;;5105916;28;20143;-71
2023/12/22 10:55:08;;;;;;;3.10;0.47;;;7.00;81.80;;;;;;5106277;27;20793;-73
2023/12/22 10:57:38;;;;;;;4.95;0.50;;;7.00;82.20;;;;;;5101392;27;20048;-73
2023/12/22 11:00:08;;;;;;;5.20;0.40;;;7.00;82.10;;;;;;5103742;28;20052;-72
2023/12/22 11:02:40;;;;;;;8.23;0.82;;;7.00;82.20;;;;;;5101938;28;20285;-70
2023/12/22 11:05:11;;;;;;;7.80;0.95;;;7.00;82.10;;;;;;5103174;27;20162;-71
2023/12/22 11:07:39;;;;;;;3.97;0.38;;;7.00;82.00;;;;;;5097428;27;20137;-71
2023/12/22 11:10:07;;;;;;;3.53;0.40;;;7.00;81.90;;;;;;5104147;27;20059;-72
2023/12/22 11:12:36;;;;;;;4.30;0.30;;;7.00;82.10;;;;;;5076694;28;20761;-71
2023/12/22 11:15:06;;;;;;;6.93;0.60;;;7.00;81.90;;;;;;5102242;28;20270;-70
2023/12/22 11:17:35;;;;;;;3.67;0.45;;;7.00;81.90;;;;;;5102396;27;20052;-72
2023/12/22 11:20:04;;;;;;;3.78;0.40;;;7.00;81.90;;;;;;5104554;28;20044;-72
2023/12/22 11:22:33;;;;;;;5.13;0.45;;;7.00;81.90;;;;;;5104696;28;20048;-72
2023/12/22 11:25:03;;;;;;;2.73;0.30;;;7.00;81.90;;;;;;5105050;27;20825;-73
2023/12/22 11:27:30;;;;;;;4.18;0.50;;;7.10;82.10;;;;;;5112381;27;20274;-72
2023/12/22 11:30:01;;;;;;;6.97;1.48;;;7.10;82.10;;;;;;5096640;28;20063;-72
2023/12/22 11:32:30;;;;;;;4.70;0.52;;;7.20;82.20;;;;;;5105494;27;20835;-71
2023/12/22 11:34:59;;;;;;;3.80;0.50;;;7.10;82.30;;;;;;5103791;28;20048;-73
2023/12/22 11:37:26;;;;;;;4.33;0.67;;;7.20;82.50;;;;;;5100827;28;20052;-72
2023/12/22 11:39:53;;;;;;;2.83;0.50;;;7.20;82.30;;;;;;5104839;28;20251;-72
2023/12/22 11:42:26;;;;;;;3.28;0.47;;;7.20;82.40;;;;;;5100496;27;20082;-72
2023/12/22 11:44:54;;;;;;;4.30;0.32;;;7.20;82.40;;;;;;5105645;27;20051;-74
2023/12/22 11:47:25;;;;;;;8.93;0.68;;;7.20;82.50;;;;;;5097702;28;20052;-73
2023/12/22 11:49:52;;;;;;;3.37;1.03;;;7.20;82.50;;;;;;5083736;28;20791;-73
2023/12/22 11:52:28;;;;;;;3.50;0.60;;;7.30;82.50;;;;;;5091982;28;20265;-73
2023/12/22 11:54:55;;;;;;;4.18;0.38;;;7.20;82.60;;;;;;5101115;28;20057;-73
2023/12/22 11:57:41;;;;;;;4.50;0.45;;;7.30;82.60;;;;;;5103129;27;20480;-73
2023/12/22 12:00:11;;;;;;;3.80;0.40;;;7.30;82.50;;;;;;5029764;27;20499;-72
2023/12/22 12:02:42;;;;;;;6.80;0.70;;;7.30;82.70;;;;;;5108208;27;20045;-73
2023/12/22 12:05:10;;;;;;;3.95;0.28;;;7.40;82.60;;;;;;5101565;28;20366;-74
2023/12/22 12:07:38;;;;;;;2.90;0.32;;;7.40;82.70;;;;;;5100253;28;20459;-73
2023/12/22 12:10:06;;;;;;;2.63;0.20;;;7.40;82.80;;;;;;5100247;27;20435;-74
2023/12/22 12:12:34;;;;;;;2.50;0.22;;;7.40;82.70;;;;;;5099068;28;20144;-71
2023/12/22 12:15:08;;;;;;;5.43;0.60;;;7.40;82.80;;;;;;5104829;27;20129;-71
2023/12/22 12:17:39;;;;;;;3.78;0.50;;;7.40;82.90;;;;;;5095912;27;20262;-71
2023/12/22 12:20:10;;;;;;;3.72;0.40;;;7.50;82.70;;;;;;5105401;27;20122;-71
2023/12/22 12:22:38;;;;;;;3.28;0.30;;;7.50;82.90;;;;;;5103600;28;20139;-72
2023/12/22 12:25:09;;;;;;;8.40;0.47;;;7.50;83.00;;;;;;5102722;28;20054;-71
2023/12/22 12:27:38;;;;;;;6.43;0.30;;;7.50;83.00;;;;;;5097560;28;20052;-71
2023/12/22 12:30:14;;;;;;;5.20;0.80;;;7.50;83.00;;;;;;5103888;28;20399;-70
2023/12/22 12:32:45;;;;;;;6.13;0.70;;;7.50;83.20;;;;;;5104524;28;20050;-71
2023/12/22 12:35:14;;;;;;;2.67;0.57;;;7.50;83.30;;;;;;5103193;28;20129;-71
2023/12/22 12:37:41;;;;;;;3.80;0.43;;;7.50;83.30;;;;;;5099459;27;20055;-70
2023/12/22 12:40:11;;;;;;;5.53;0.70;;;7.50;83.30;;;;;;5103058;28;20052;-71
2023/12/22 12:42:39;;;;;;;5.07;0.60;;;7.50;83.30;;;;;;5104647;27;20342;-71
2023/12/22 12:45:08;;;;;;;4.70;0.50;;;7.60;83.30;;;;;;5090710;27;20550;-70
2023/12/22 12:47:35;;;;;;;5.53;0.50;;;7.60;83.30;;;;;;5083578;28;20040;-71
2023/12/22 12:50:02;;;;;;;4.78;0.52;;;7.60;83.50;;;;;;5103147;27;20056;-72
2023/12/22 12:52:31;;;;;;;5.67;0.60;;;7.60;83.50;;;;;;5100298;28;20103;-70
2023/12/22 12:54:58;;;;;;;4.07;0.47;;;7.60;83.70;;;;;;5096101;27;20277;-70